createdAt,value
2019-05-02T00:09:33.475Z,98935.80
2019-05-02T00:19:37.629Z,98925.55
2019-05-02T00:29:42.215Z,98908.58
2019-05-02T00:39:49.185Z,98913.30
2019-05-02T00:49:53.029Z,98908.56
2019-05-02T00:59:57.543Z,98909.81
2019-05-02T01:10:02.295Z,98897.70
2019-05-02T01:20:08.351Z,98896.12
2019-05-02T01:30:31.270Z,98890.84
2019-05-02T01:40:35.886Z,98877.31
2019-05-02T01:50:40.332Z,98877.75
2019-05-02T02:00:45.972Z,98858.01
2019-05-02T02:10:56.448Z,98860.80
2019-05-02T02:21:02.683Z,98850.13
2019-05-02T02:31:08.210Z,98853.94
2019-05-02T02:41:14.790Z,98840.91
2019-05-02T02:51:23.586Z,98840.39
2019-05-02T03:01:28.677Z,98839.28
2019-05-02T03:11:34.251Z,98832.03
2019-05-02T03:21:40.595Z,98835.03
2019-05-02T03:31:45.483Z,98832.95
2019-05-02T03:41:55.435Z,98840.53
2019-05-02T03:52:03.128Z,98836.26
2019-05-02T04:02:03.190Z,98828.56
2019-05-02T04:12:18.521Z,98829.30
2019-05-02T04:22:15.575Z,98822.89
2019-05-02T04:32:20.207Z,98820.30
2019-05-02T04:42:24.709Z,98820.73
2019-05-02T04:52:29.263Z,98823.75
2019-05-02T05:02:36.525Z,98829.24
2019-05-02T05:12:41.814Z,98825.73
2019-05-02T05:22:47.908Z,98823.23
2019-05-02T05:32:52.523Z,98825.98
2019-05-02T05:42:57.432Z,98812.94
2019-05-02T05:53:01.897Z,98793.34
2019-05-02T06:03:13.024Z,98776.45
2019-05-02T06:13:12.933Z,98771.52
2019-05-02T06:23:17.483Z,98803.42
2019-05-02T06:33:25.917Z,98778.62
2019-05-02T06:43:29.155Z,98796.94
2019-05-02T06:53:35.182Z,98767.61
2019-05-02T07:03:41.245Z,98792.52
2019-05-02T07:13:47.065Z,98752.88
2019-05-02T07:23:53.759Z,98754.63
2019-05-02T07:33:57.790Z,98753.53
2019-05-02T07:44:04.394Z,98762.97
2019-05-02T07:54:08.517Z,98731.40
2019-05-02T08:04:13.082Z,98729.42
2019-05-02T08:14:18.643Z,98729.67
2019-05-02T08:24:23.128Z,98722.82
2019-05-02T08:34:33.578Z,98721.13
2019-05-02T08:44:50.327Z,98733.95
2019-05-02T08:54:44.506Z,98708.82
2019-05-02T09:04:58.229Z,98724.62
2019-05-02T09:14:55.659Z,98707.61
2019-05-02T09:25:02.130Z,98713.78
2019-05-02T09:35:07.031Z,98724.19
2019-05-02T09:45:16.689Z,98707.90
2019-05-02T09:55:22.624Z,98702.47
2019-05-02T10:05:27.609Z,98707.36
2019-05-02T10:15:32.802Z,98701.95
2019-05-02T10:25:38.842Z,98683.48
2019-05-02T10:35:45.608Z,98675.11
2019-05-02T10:45:56.603Z,98666.00
2019-05-02T10:56:02.668Z,98654.90
2019-05-02T11:06:08.913Z,98659.95
2019-05-02T11:16:24.085Z,98684.70
2019-05-02T11:26:29.073Z,98649.12
2019-05-02T11:36:33.682Z,98653.29
2019-05-02T11:46:42.892Z,98642.96
2019-05-02T11:56:49.226Z,98677.13
2019-05-02T12:07:00.972Z,98657.05
2019-05-02T12:16:59.299Z,98657.05
2019-05-02T12:27:05.007Z,98654.17
2019-05-02T12:37:09.624Z,98644.08
2019-05-02T12:47:15.249Z,98646.09
2019-05-02T12:57:21.895Z,98651.99
2019-05-02T13:07:26.089Z,98679.02
2019-05-02T13:17:35.646Z,98650.30
2019-05-02T13:27:44.400Z,98649.25
2019-05-02T13:37:45.834Z,98619.41
2019-05-02T13:47:51.959Z,98628.03
2019-05-02T13:57:56.610Z,98620.55
2019-05-02T14:08:15.926Z,98621.18
2019-05-02T14:18:21.952Z,98629.33
2019-05-02T14:28:26.997Z,98621.36
2019-05-02T14:38:33.095Z,98599.87
2019-05-02T14:48:45.078Z,98613.67
2019-05-02T14:58:47.691Z,98612.15
2019-05-02T15:08:52.660Z,98613.90
2019-05-02T15:18:57.261Z,98626.40
2019-05-02T15:29:01.956Z,98613.91
2019-05-02T15:49:16.465Z,98612.77
2019-05-02T15:59:37.482Z,98610.05
2019-05-02T16:09:39.161Z,98610.78
2019-05-02T16:19:45.268Z,98601.24
2019-05-02T16:29:49.768Z,98585.23
2019-05-02T16:39:54.414Z,98592.96
2019-05-02T16:49:58.882Z,98581.97
2019-05-02T17:00:06.376Z,98583.58
2019-05-02T17:10:19.848Z,98578.55
2019-05-02T17:20:24.407Z,98573.81
2019-05-02T17:30:33.346Z,98857.89
2019-05-02T17:40:36.200Z,98601.55
2019-05-02T17:51:02.182Z,98628.39
2019-05-02T18:01:08.847Z,98632.20
2019-05-02T18:11:13.432Z,98649.25
2019-05-02T18:21:24.719Z,98659.98
2019-05-02T18:31:25.339Z,98669.67
2019-05-02T18:41:31.767Z,98674.16
2019-05-02T18:51:36.316Z,98687.72
2019-05-02T19:01:42.664Z,98686.58
2019-05-02T19:11:47.337Z,98694.24
2019-05-02T19:21:51.807Z,98707.16
2019-05-02T19:31:56.912Z,98692.48
2019-05-02T19:42:01.877Z,98699.16
2019-05-02T19:52:06.772Z,98695.48
2019-05-02T20:02:11.999Z,98693.84
2019-05-02T20:12:17.315Z,98694.58
2019-05-02T20:22:23.422Z,98698.98
2019-05-02T20:32:27.999Z,98707.61
2019-05-02T20:42:32.851Z,98700.11
2019-05-02T20:52:37.354Z,98694.78
2019-05-02T21:02:42.467Z,98690.59
2019-05-02T21:12:47.120Z,98695.98
2019-05-02T21:22:53.000Z,98696.83
2019-05-02T21:32:57.815Z,98696.30
2019-05-02T21:43:02.548Z,98702.58
2019-05-02T21:53:14.399Z,98699.14
2019-05-02T22:03:19.411Z,98702.08
2019-05-02T22:13:23.987Z,98689.20
2019-05-02T22:23:33.668Z,98673.72
2019-05-02T22:33:35.770Z,98677.23
2019-05-02T22:43:42.162Z,98676.63
2019-05-02T22:53:46.702Z,98673.39
2019-05-02T23:03:52.477Z,98668.07
2019-05-02T23:13:57.079Z,98671.34
2019-05-02T23:24:09.084Z,98661.80
2019-05-02T23:34:13.691Z,98660.63
2019-05-02T23:44:18.129Z,98642.43
2019-05-02T23:54:22.718Z,98649.59
